Time;durP1;ratioP1;P1;durP2;ratioP2;P2;SDS_P1;SDS_P2;PMS_P1;PMS_P2;Temp;Humidity;BMP_temperature;BMP_pressure;BME280_temperature;BME280_humidity;BME280_pressure;Samples;Min_cycle;Max_cycle;Signal;HPM_P1;HPM_P2
2023/03/27 00:00:52;;;;;;;0.50;0.20;;;5.50;95.30;;;;;;5070437;28;20036;-78
2023/03/27 00:03:19;;;;;;;2.13;0.60;;;5.50;95.40;;;;;;5065995;28;20058;-78
2023/03/27 00:05:44;;;;;;;1.33;0.30;;;5.50;95.40;;;;;;5076001;28;20024;-78
2023/03/27 00:08:12;;;;;;;0.82;0.40;;;5.60;95.40;;;;;;5073358;28;20448;-77
2023/03/27 00:10:38;;;;;;;0.50;0.38;;;5.60;95.50;;;;;;5078544;28;20123;-78
2023/03/27 00:13:05;;;;;;;0.38;0.20;;;5.60;95.50;;;;;;5049418;28;20071;-78
2023/03/27 00:15:33;;;;;;;0.38;0.20;;;5.50;95.50;;;;;;5065691;28;20036;-77
2023/03/27 00:18:02;;;;;;;0.75;0.15;;;5.50;95.50;;;;;;5056643;28;20465;-77
2023/03/27 00:20:30;;;;;;;1.38;0.20;;;5.50;95.50;;;;;;5074905;28;20025;-77
2023/03/27 00:22:56;;;;;;;0.52;0.25;;;5.50;95.50;;;;;;5069788;28;20032;-77
2023/03/27 00:25:24;;;;;;;0.47;0.38;;;5.50;95.60;;;;;;5057785;28;20111;-77
2023/03/27 00:27:50;;;;;;;1.33;0.25;;;5.50;95.60;;;;;;5070984;28;20036;-78
2023/03/27 00:30:16;;;;;;;1.45;0.20;;;5.50;95.60;;;;;;5058291;28;20075;-77
2023/03/27 00:32:42;;;;;;;0.20;0.10;;;5.40;95.60;;;;;;5059486;28;20033;-78
2023/03/27 00:35:08;;;;;;;0.20;0.20;;;5.40;95.70;;;;;;5063024;28;20111;-78
2023/03/27 00:37:37;;;;;;;0.10;0.10;;;5.40;95.80;;;;;;5063415;28;20035;-78
2023/03/27 00:40:06;;;;;;;0.30;0.20;;;5.50;95.90;;;;;;5080544;28;20080;-78
2023/03/27 00:42:33;;;;;;;1.45;0.10;;;5.50;95.90;;;;;;5077014;28;20040;-78
2023/03/27 00:45:00;;;;;;;1.02;0.15;;;5.50;95.90;;;;;;5060679;28;20021;-77
2023/03/27 00:47:32;;;;;;;0.22;0.20;;;5.60;95.90;;;;;;5077259;28;20058;-78
2023/03/27 00:50:00;;;;;;;;;;;5.70;95.80;;;;;;5075540;28;20434;-78
2023/03/27 00:52:28;;;;;;;0.28;0.20;;;5.70;95.70;;;;;;5075196;28;20007;-78
2023/03/27 00:54:57;;;;;;;1.05;0.25;;;5.80;95.60;;;;;;5076525;28;20098;-77
2023/03/27 00:57:24;;;;;;;1.30;0.10;;;5.80;95.40;;;;;;5039111;28;20029;-77
2023/03/27 00:59:53;;;;;;;0.10;0.10;;;5.90;95.40;;;;;;5062780;28;20036;-79
2023/03/27 01:02:20;;;;;;;0.45;0.20;;;5.90;95.40;;;;;;5060027;28;20469;-76
2023/03/27 01:04:46;;;;;;;0.32;0.20;;;5.90;95.30;;;;;;5079714;28;20036;-77
2023/03/27 01:07:12;;;;;;;1.35;0.10;;;5.90;95.30;;;;;;5068688;28;20040;-78
2023/03/27 01:09:38;;;;;;;0.10;0.10;;;5.90;95.20;;;;;;5041545;28;20021;-78
2023/03/27 01:12:30;;;;;;;0.00;0.00;;;5.90;95.20;;;;;;5062260;28;20434;-78
2023/03/27 01:15:29;;;;;;;0.83;0.10;;;6.00;95.30;;;;;;5071159;28;20032;-77
2023/03/27 01:18:13;;;;;;;0.08;0.03;;;6.00;95.20;;;;;;5070683;28;20035;-78
2023/03/27 01:20:51;;;;;;;0.63;0.30;;;6.00;95.40;;;;;;5068665;28;20043;-78
2023/03/27 01:23:25;;;;;;;1.23;0.20;;;6.00;95.60;;;;;;5077223;28;20016;-78
2023/03/27 01:26:09;;;;;;;0.15;0.15;;;6.00;95.90;;;;;;5080926;28;20054;-78
2023/03/27 01:28:56;;;;;;;0.98;0.25;;;6.00;96.10;;;;;;5068276;28;20080;-77
2023/03/27 01:31:25;;;;;;;0.63;0.30;;;6.00;96.50;;;;;;5080002;28;20032;-77
2023/03/27 01:34:19;;;;;;;0.52;0.20;;;6.00;96.70;;;;;;5068926;28;20114;-78
2023/03/27 01:37:14;;;;;;;0.40;0.10;;;5.90;96.90;;;;;;5079046;28;20064;-78
2023/03/27 01:40:06;;;;;;;0.30;0.25;;;5.90;97.20;;;;;;5070925;28;20090;-76
2023/03/27 01:42:50;;;;;;;2.05;0.28;;;5.90;97.40;;;;;;5069937;28;20182;-76
2023/03/27 01:45:23;;;;;;;1.30;0.28;;;5.80;97.50;;;;;;5067398;28;20478;-77
2023/03/27 01:48:04;;;;;;;1.65;0.10;;;5.80;97.80;;;;;;5073636;28;20096;-78
2023/03/27 01:50:52;;;;;;;0.43;0.13;;;5.80;97.90;;;;;;5059129;28;20025;-78
2023/03/27 01:53:17;;;;;;;0.50;0.10;;;5.70;98.10;;;;;;5071048;28;20025;-77
2023/03/27 01:55:52;;;;;;;0.75;0.30;;;5.70;98.60;;;;;;5067170;28;20090;-77
2023/03/27 01:58:23;;;;;;;0.50;0.30;;;5.60;98.80;;;;;;5065906;28;20076;-76
2023/03/27 02:00:52;;;;;;;1.23;0.30;;;5.60;99.00;;;;;;5047226;28;20036;-78
2023/03/27 02:03:45;;;;;;;0.45;0.20;;;5.60;99.30;;;;;;5061225;28;20032;-77
2023/03/27 02:06:16;;;;;;;0.17;0.10;;;5.50;99.50;;;;;;5056485;28;20499;-78
2023/03/27 02:08:56;;;;;;;0.15;0.10;;;5.50;99.60;;;;;;5056898;28;20130;-78
2023/03/27 02:11:26;;;;;;;0.52;0.10;;;5.50;99.90;;;;;;5061020;28;20024;-77
2023/03/27 02:13:59;;;;;;;0.05;0.05;;;5.50;99.90;;;;;;5061488;28;20062;-77
2023/03/27 02:16:32;;;;;;;0.30;0.10;;;5.60;99.90;;;;;;5056247;28;20025;-77
2023/03/27 02:19:12;;;;;;;0.10;0.10;;;5.60;99.90;;;;;;5060112;28;20414;-77
2023/03/27 02:21:38;;;;;;;0.45;0.10;;;5.60;99.90;;;;;;5076187;28;20033;-77
2023/03/27 02:24:04;;;;;;;1.20;0.80;;;5.60;99.90;;;;;;5041042;28;20087;-77
2023/03/27 02:26:33;;;;;;;0.20;0.20;;;5.60;99.90;;;;;;5064511;28;20029;-77
2023/03/27 02:29:46;;;;;;;0.90;0.25;;;5.60;99.90;;;;;;5082093;28;20016;-78
2023/03/27 02:32:26;;;;;;;0.10;0.10;;;5.60;99.90;;;;;;5057253;28;20030;-76
2023/03/27 02:35:05;;;;;;;0.30;0.20;;;5.60;99.90;;;;;;5077214;28;20035;-76
2023/03/27 02:37:44;;;;;;;1.35;0.32;;;5.60;99.90;;;;;;5089951;28;20080;-77
2023/03/27 02:40:15;;;;;;;0.20;0.20;;;5.60;99.90;;;;;;5044647;28;20058;-78
2023/03/27 02:42:59;;;;;;;0.80;0.20;;;5.60;99.90;;;;;;5068335;28;20025;-76
2023/03/27 02:45:51;;;;;;;0.25;0.20;;;5.50;99.90;;;;;;5075223;28;20072;-78
2023/03/27 02:48:16;;;;;;;0.10;0.10;;;5.50;99.90;;;;;;5054932;28;20120;-78
2023/03/27 02:51:03;;;;;;;0.35;0.20;;;5.50;99.90;;;;;;5039087;28;20051;-78
2023/03/27 02:53:33;;;;;;;1.25;0.20;;;5.50;99.90;;;;;;5044999;28;20036;-78
2023/03/27 02:56:02;;;;;;;0.40;0.30;;;5.40;99.90;;;;;;5062958;28;20021;-77
2023/03/27 02:59:07;;;;;;;0.88;0.30;;;5.40;99.90;;;;;;5072549;28;20108;-77
2023/03/27 03:01:34;;;;;;;0.10;0.10;;;5.40;99.90;;;;;;5067664;28;20033;-78
2023/03/27 03:04:27;;;;;;;0.38;0.22;;;5.40;99.90;;;;;;5048655;28;20029;-76
2023/03/27 03:06:53;;;;;;;0.25;0.25;;;5.30;99.90;;;;;;5056271;28;20036;-78
2023/03/27 03:09:19;;;;;;;0.65;0.20;;;5.30;99.90;;;;;;5055243;28;20025;-77
2023/03/27 03:11:50;;;;;;;0.20;0.20;;;5.30;99.90;;;;;;5042179;28;20116;-77
2023/03/27 03:14:20;;;;;;;0.20;0.20;;;5.20;99.90;;;;;;5072207;28;20028;-78
2023/03/27 03:16:45;;;;;;;0.75;0.10;;;5.20;99.90;;;;;;5065480;28;20085;-79
2023/03/27 03:19:12;;;;;;;0.35;0.20;;;5.20;99.90;;;;;;5061658;28;20542;-77
2023/03/27 03:21:38;;;;;;;0.63;0.55;;;5.20;99.90;;;;;;5070608;28;20035;-77
2023/03/27 03:24:06;;;;;;;0.32;0.20;;;5.20;99.90;;;;;;5038504;28;20029;-78
2023/03/27 03:26:32;;;;;;;0.20;0.20;;;5.20;99.90;;;;;;5054725;28;20036;-77
2023/03/27 03:28:59;;;;;;;0.43;0.20;;;5.10;99.90;;;;;;5061886;28;20048;-78
2023/03/27 03:31:25;;;;;;;0.63;0.40;;;5.10;99.90;;;;;;5073244;28;20031;-78
2023/03/27 03:33:51;;;;;;;0.20;0.20;;;5.10;99.90;;;;;;5036112;28;20025;-77
2023/03/27 03:36:17;;;;;;;0.47;0.30;;;5.00;99.90;;;;;;5067538;28;20042;-78
2023/03/27 03:38:43;;;;;;;0.20;0.20;;;5.00;99.90;;;;;;5059568;28;20031;-77
2023/03/27 03:41:08;;;;;;;0.30;0.30;;;4.90;99.90;;;;;;5071597;28;20046;-77
2023/03/27 03:43:34;;;;;;;0.20;0.20;;;4.90;99.90;;;;;;5072015;28;20021;-77
2023/03/27 03:46:00;;;;;;;0.45;0.30;;;4.80;99.90;;;;;;5072924;28;20051;-78
2023/03/27 03:48:26;;;;;;;0.20;0.20;;;4.80;99.90;;;;;;5052204;28;20486;-77
2023/03/27 03:50:52;;;;;;;0.30;0.28;;;4.70;99.90;;;;;;5056691;28;20111;-77
2023/03/27 03:53:20;;;;;;;0.30;0.30;;;4.70;99.90;;;;;;5063424;28;20481;-79
2023/03/27 03:55:50;;;;;;;0.20;0.20;;;4.60;99.90;;;;;;5053253;28;20124;-77
2023/03/27 03:58:16;;;;;;;1.27;0.40;;;4.50;99.90;;;;;;5048772;28;20029;-78
2023/03/27 04:00:42;;;;;;;0.70;0.47;;;4.50;99.90;;;;;;5048754;28;20258;-78
2023/03/27 04:03:09;;;;;;;0.57;0.35;;;4.50;99.90;;;;;;5049275;28;20035;-77
2023/03/27 04:05:36;;;;;;;0.38;0.30;;;4.50;99.90;;;;;;5073052;28;20092;-78
2023/03/27 04:08:05;;;;;;;0.30;0.30;;;;;;;;;;5065405;28;20179;-77
2023/03/27 04:10:32;;;;;;;1.30;0.32;;;4.40;99.90;;;;;;5070641;28;20103;-77
2023/03/27 04:12:58;;;;;;;1.38;0.50;;;4.40;99.90;;;;;;5051240;28;20113;-77
2023/03/27 04:15:25;;;;;;;0.28;0.28;;;4.40;99.90;;;;;;5070882;28;20021;-78
2023/03/27 04:17:52;;;;;;;0.40;0.40;;;4.30;99.90;;;;;;5053099;28;20067;-78
2023/03/27 04:20:18;;;;;;;2.08;0.30;;;4.30;99.90;;;;;;5038572;28;20545;-78
2023/03/27 04:22:45;;;;;;;1.75;0.38;;;4.30;99.90;;;;;;5058784;28;20253;-78
2023/03/27 04:25:13;;;;;;;0.40;0.40;;;4.30;99.90;;;;;;5054279;28;20028;-77
2023/03/27 04:27:39;;;;;;;3.38;0.38;;;4.30;99.90;;;;;;5068925;28;20029;-78
2023/03/27 04:30:09;;;;;;;0.50;0.50;;;4.40;99.90;;;;;;5033152;28;20424;-78
2023/03/27 04:32:35;;;;;;;0.50;0.50;;;4.40;99.90;;;;;;5044430;28;20031;-77
2023/03/27 04:35:01;;;;;;;0.75;0.73;;;4.40;99.90;;;;;;5067278;28;20386;-78
2023/03/27 04:37:28;;;;;;;1.63;1.00;;;4.50;99.90;;;;;;5056804;28;20346;-77
2023/03/27 04:39:53;;;;;;;0.80;0.77;;;4.50;99.90;;;;;;5060116;28;20025;-78
2023/03/27 04:42:22;;;;;;;0.80;0.73;;;4.60;99.90;;;;;;5066278;28;20124;-78
2023/03/27 04:44:49;;;;;;;0.77;0.77;;;4.60;99.90;;;;;;5052815;28;20024;-77
2023/03/27 04:47:14;;;;;;;1.05;1.00;;;4.60;99.90;;;;;;5058630;28;20441;-79
2023/03/27 04:49:45;;;;;;;3.17;1.17;;;4.60;99.90;;;;;;5071944;28;20060;-77
2023/03/27 04:52:13;;;;;;;1.13;0.70;;;4.60;99.90;;;;;;5070723;28;20017;-78
2023/03/27 04:54:39;;;;;;;0.52;0.52;;;4.60;99.90;;;;;;5063498;28;20039;-77
2023/03/27 04:57:06;;;;;;;1.17;0.40;;;4.60;99.90;;;;;;5052959;28;20029;-77
2023/03/27 04:59:32;;;;;;;0.50;0.50;;;4.60;99.90;;;;;;5050078;28;20063;-77
2023/03/27 05:02:00;;;;;;;0.47;0.47;;;4.40;99.90;;;;;;5056915;28;20129;-78
2023/03/27 05:04:27;;;;;;;2.42;1.30;;;4.40;99.90;;;;;;5061172;28;20461;-78
2023/03/27 05:06:54;;;;;;;2.80;1.42;;;4.30;99.90;;;;;;5075062;28;20079;-78
2023/03/27 05:09:21;;;;;;;0.35;0.35;;;4.30;99.90;;;;;;5076604;28;20081;-78
2023/03/27 05:11:48;;;;;;;1.40;0.60;;;4.40;99.90;;;;;;5068510;28;20032;-78
2023/03/27 05:14:22;;;;;;;0.47;0.32;;;4.40;99.90;;;;;;5045957;28;20496;-78
2023/03/27 05:16:50;;;;;;;0.55;0.50;;;4.30;99.90;;;;;;5056610;28;20089;-78
2023/03/27 05:19:18;;;;;;;0.50;0.40;;;4.30;99.90;;;;;;5057446;28;20116;-78
2023/03/27 05:21:45;;;;;;;0.20;0.20;;;4.20;99.90;;;;;;5056225;28;20387;-78
2023/03/27 05:24:12;;;;;;;0.38;0.22;;;4.20;99.90;;;;;;5070167;28;20025;-77
2023/03/27 05:26:38;;;;;;;0.30;0.30;;;4.20;99.90;;;;;;5066763;28;20489;-78
2023/03/27 05:29:05;;;;;;;1.58;0.22;;;4.10;99.90;;;;;;5054281;28;20538;-78
2023/03/27 05:31:32;;;;;;;0.20;0.20;;;4.10;99.90;;;;;;5074997;28;20035;-78
2023/03/27 05:33:58;;;;;;;0.20;0.20;;;4.10;99.90;;;;;;5059175;28;20372;-78
2023/03/27 05:36:26;;;;;;;0.40;0.40;;;4.00;99.90;;;;;;5076812;28;20020;-79
2023/03/27 05:38:53;;;;;;;0.80;0.80;;;4.00;99.90;;;;;;5075628;28;20020;-78
2023/03/27 05:41:19;;;;;;;3.85;0.60;;;3.90;99.90;;;;;;5077770;28;20024;-78
2023/03/27 05:43:45;;;;;;;0.50;0.50;;;3.90;99.90;;;;;;5047256;28;20040;-76
2023/03/27 05:46:12;;;;;;;0.57;0.55;;;3.80;99.90;;;;;;5066297;28;20091;-78
2023/03/27 05:48:38;;;;;;;0.52;0.47;;;3.90;99.90;;;;;;5081752;28;20319;-77
2023/03/27 05:51:08;;;;;;;0.35;0.30;;;3.80;99.90;;;;;;5064193;28;20304;-77
2023/03/27 05:53:36;;;;;;;2.20;0.50;;;3.80;99.90;;;;;;5071430;28;20041;-78
2023/03/27 05:56:02;;;;;;;0.90;0.50;;;3.80;99.90;;;;;;5049640;28;20037;-78
2023/03/27 05:58:28;;;;;;;0.40;0.40;;;3.70;99.90;;;;;;5076769;28;20550;-78
2023/03/27 06:00:54;;;;;;;2.15;0.50;;;3.70;99.90;;;;;;5083444;28;20035;-78
2023/03/27 06:03:19;;;;;;;0.52;0.52;;;3.70;99.90;;;;;;5069905;28;20478;-78
2023/03/27 06:05:45;;;;;;;1.67;0.88;;;3.70;99.90;;;;;;5062149;28;20033;-77
2023/03/27 06:08:11;;;;;;;0.45;0.40;;;3.70;99.90;;;;;;5071269;28;20454;-77
2023/03/27 06:10:40;;;;;;;0.77;0.77;;;3.70;99.90;;;;;;5074759;28;20027;-77
2023/03/27 06:13:08;;;;;;;1.02;0.82;;;3.70;99.90;;;;;;5073098;28;20047;-77
2023/03/27 06:15:37;;;;;;;3.13;0.57;;;3.70;99.90;;;;;;5068194;28;20048;-78
2023/03/27 06:18:03;;;;;;;0.68;0.68;;;3.60;99.90;;;;;;5059637;28;20028;-78
2023/03/27 06:20:29;;;;;;;0.80;0.80;;;3.60;99.90;;;;;;5053150;28;20477;-78
2023/03/27 06:22:59;;;;;;;2.00;0.75;;;3.50;99.90;;;;;;5063206;28;20048;-78
2023/03/27 06:25:26;;;;;;;1.08;1.05;;;3.40;99.90;;;;;;5064038;28;20021;-79
2023/03/27 06:27:52;;;;;;;1.35;1.05;;;3.30;99.90;;;;;;5040463;28;20048;-78
2023/03/27 06:30:21;;;;;;;0.95;0.95;;;3.30;99.90;;;;;;5064717;28;20059;-77
2023/03/27 06:32:52;;;;;;;0.98;0.95;;;3.30;99.90;;;;;;5061266;28;20104;-78
2023/03/27 06:35:19;;;;;;;1.33;1.08;;;3.30;99.90;;;;;;5042227;28;20489;-77
2023/03/27 06:37:47;;;;;;;1.20;1.08;;;3.20;99.90;;;;;;5046299;28;20036;-78
2023/03/27 06:40:23;;;;;;;0.80;0.80;;;3.20;99.90;;;;;;5059144;28;20106;-79
2023/03/27 06:43:02;;;;;;;1.45;0.80;;;3.10;99.90;;;;;;5048868;28;20031;-78
2023/03/27 06:45:31;;;;;;;0.77;0.77;;;3.10;99.90;;;;;;5073929;28;20322;-78
2023/03/27 06:47:59;;;;;;;1.75;0.80;;;3.10;99.90;;;;;;5050955;28;20020;-77
2023/03/27 06:50:27;;;;;;;0.73;0.73;;;3.10;99.90;;;;;;5052336;28;20422;-78
2023/03/27 06:52:53;;;;;;;0.70;0.70;;;3.10;99.90;;;;;;5066614;28;20025;-78
2023/03/27 06:55:21;;;;;;;0.82;0.80;;;3.10;99.90;;;;;;5063835;28;20021;-77
2023/03/27 06:57:53;;;;;;;0.60;0.60;;;3.00;99.90;;;;;;5075320;28;20017;-77
2023/03/27 07:00:25;;;;;;;0.70;0.70;;;2.90;99.90;;;;;;5068997;28;20025;-79
2023/03/27 07:02:54;;;;;;;0.50;0.50;;;2.80;99.90;;;;;;5067742;28;20119;-78
2023/03/27 07:05:21;;;;;;;1.25;1.15;;;2.90;99.90;;;;;;5061618;28;20114;-77
2023/03/27 07:07:47;;;;;;;0.60;0.60;;;2.80;99.90;;;;;;5058170;28;20021;-78
2023/03/27 07:10:14;;;;;;;1.35;0.70;;;2.90;99.90;;;;;;5039676;28;20032;-78
2023/03/27 07:12:46;;;;;;;3.50;0.75;;;2.80;99.90;;;;;;5062379;28;20036;-78
2023/03/27 07:15:11;;;;;;;0.93;0.90;;;2.80;99.90;;;;;;5075379;28;20061;-77
2023/03/27 07:17:39;;;;;;;0.82;0.82;;;2.80;99.90;;;;;;5074843;28;20036;-77
2023/03/27 07:20:06;;;;;;;1.27;0.80;;;2.80;99.90;;;;;;5068944;28;20025;-76
2023/03/27 07:22:32;;;;;;;1.25;1.08;;;2.80;99.90;;;;;;5075733;28;20055;-78
2023/03/27 07:24:57;;;;;;;1.27;0.80;;;2.80;99.90;;;;;;5053550;28;20032;-77
2023/03/27 07:27:24;;;;;;;2.17;0.77;;;2.80;99.90;;;;;;5061720;28;20118;-77
2023/03/27 07:29:50;;;;;;;1.92;0.95;;;2.80;99.90;;;;;;5080258;28;20024;-78
2023/03/27 07:32:16;;;;;;;1.45;0.70;;;2.80;99.90;;;;;;5058578;28;20028;-78
2023/03/27 07:34:42;;;;;;;0.85;0.70;;;2.80;99.90;;;;;;5036902;28;20029;-77
2023/03/27 07:37:07;;;;;;;1.75;0.80;;;2.80;99.90;;;;;;5054053;28;20504;-77
2023/03/27 07:39:34;;;;;;;1.73;0.90;;;2.80;99.90;;;;;;5056223;28;20025;-78
2023/03/27 07:41:59;;;;;;;1.05;0.60;;;2.80;99.90;;;;;;5071031;28;20024;-77
2023/03/27 07:44:28;;;;;;;0.60;0.60;;;2.80;99.90;;;;;;5067431;28;20045;-77
2023/03/27 07:46:54;;;;;;;0.55;0.55;;;2.80;99.90;;;;;;5053566;28;20382;-77
2023/03/27 07:49:19;;;;;;;0.80;0.75;;;2.70;99.90;;;;;;5054069;28;20044;-78
2023/03/27 07:51:45;;;;;;;0.88;0.88;;;2.70;99.90;;;;;;5057151;28;20082;-77
2023/03/27 07:54:12;;;;;;;0.88;0.80;;;2.70;99.90;;;;;;5068659;28;20031;-77
2023/03/27 07:56:39;;;;;;;1.27;1.10;;;2.60;99.90;;;;;;5061373;28;20112;-78
2023/03/27 07:59:06;;;;;;;0.75;0.75;;;2.50;99.90;;;;;;5076151;28;20083;-77
2023/03/27 08:01:32;;;;;;;1.40;1.00;;;2.50;99.90;;;;;;5068148;28;20541;-77
2023/03/27 08:04:02;;;;;;;1.25;1.15;;;2.40;99.90;;;;;;5065477;28;20033;-77
2023/03/27 08:06:28;;;;;;;1.52;1.10;;;2.40;99.90;;;;;;5042524;28;20024;-77
2023/03/27 08:08:55;;;;;;;1.70;1.60;;;2.30;99.90;;;;;;5045420;28;20031;-77
2023/03/27 08:11:21;;;;;;;2.25;1.40;;;2.30;99.90;;;;;;5053363;28;20094;-77
2023/03/27 08:13:47;;;;;;;2.70;2.30;;;2.40;99.90;;;;;;5054021;28;20025;-78
2023/03/27 08:16:15;;;;;;;4.40;2.20;;;2.40;99.90;;;;;;5054252;28;20025;-77
2023/03/27 08:18:42;;;;;;;4.13;2.47;;;2.50;99.90;;;;;;5041073;28;20043;-78
2023/03/27 08:21:08;;;;;;;10.90;3.10;;;2.50;99.90;;;;;;5055430;28;20112;-77
2023/03/27 08:23:36;;;;;;;8.70;3.38;;;2.70;99.90;;;;;;5051628;28;20083;-77
2023/03/27 08:26:02;;;;;;;7.88;3.50;;;2.90;99.90;;;;;;5055402;28;20036;-78
2023/03/27 08:28:36;;;;;;;7.13;3.92;;;3.10;99.90;;;;;;5048878;28;20111;-77
2023/03/27 08:31:08;;;;;;;6.47;4.25;;;3.30;99.90;;;;;;5071282;28;20032;-76
2023/03/27 08:33:35;;;;;;;9.38;3.85;;;3.60;99.90;;;;;;5062971;28;20024;-78
2023/03/27 08:36:01;;;;;;;9.02;3.38;;;3.70;99.90;;;;;;5069427;28;20120;-77
2023/03/27 08:38:28;;;;;;;5.82;3.63;;;3.80;99.90;;;;;;5066915;28;20030;-79
2023/03/27 08:40:57;;;;;;;6.47;3.53;;;3.90;99.90;;;;;;5075415;28;20028;-78
2023/03/27 08:43:38;;;;;;;6.82;3.22;;;3.90;99.90;;;;;;5075125;28;20020;-77
2023/03/27 08:46:22;;;;;;;5.28;2.88;;;3.80;99.90;;;;;;5075970;28;20021;-79
2023/03/27 08:48:56;;;;;;;5.35;2.50;;;3.60;99.90;;;;;;5068997;28;20032;-77
2023/03/27 08:51:52;;;;;;;6.30;2.63;;;3.50;99.90;;;;;;5057052;28;20112;-78
2023/03/27 08:54:47;;;;;;;3.90;2.28;;;3.30;99.90;;;;;;5044922;28;20040;-78
2023/03/27 08:57:21;;;;;;;5.38;2.90;;;3.20;99.90;;;;;;5073237;28;20143;-77
2023/03/27 08:59:47;;;;;;;3.88;3.30;;;3.00;99.90;;;;;;5058929;28;20032;-79
2023/03/27 09:03:00;;;;;;;7.18;3.42;;;2.90;99.90;;;;;;5070342;28;20031;-77
2023/03/27 09:05:33;;;;;;;;;;;2.80;99.90;;;;;;4975513;28;20098;-78
2023/03/27 09:08:12;;;;;;;11.77;4.85;;;2.90;99.90;;;;;;4973175;28;19958;-79
2023/03/27 09:10:53;;;;;;;9.60;5.07;;;2.90;99.90;;;;;;5072712;28;20028;-78
2023/03/27 09:13:28;;;;;;;9.20;6.07;;;2.90;99.90;;;;;;5055355;28;20025;-79
2023/03/27 09:16:06;;;;;;;14.05;6.07;;;3.00;99.90;;;;;;5068405;28;20092;-77
2023/03/27 09:18:38;;;;;;;17.80;5.80;;;3.00;99.90;;;;;;5068792;28;20029;-78
2023/03/27 09:21:18;;;;;;;;;;;3.00;99.90;;;;;;5056480;28;20072;-78
2023/03/27 09:23:45;;;;;;;12.65;5.47;;;3.00;99.90;;;;;;5077244;28;19995;-77
2023/03/27 09:26:16;;;;;;;13.70;5.80;;;2.90;99.90;;;;;;5062486;28;20021;-78
2023/03/27 09:29:00;;;;;;;17.50;5.88;;;2.90;99.90;;;;;;5058558;28;20093;-77
2023/03/27 09:31:27;;;;;;;13.18;5.20;;;2.90;99.90;;;;;;5058824;28;20402;-77
2023/03/27 09:33:54;;;;;;;9.65;4.90;;;3.00;99.90;;;;;;5057021;28;20052;-78
2023/03/27 09:36:23;;;;;;;15.07;5.60;;;3.10;99.90;;;;;;5072949;28;20029;-77
2023/03/27 09:38:52;;;;;;;17.48;5.55;;;3.10;99.90;;;;;;5073700;28;20028;-78
2023/03/27 09:41:25;;;;;;;15.23;4.78;;;3.20;99.90;;;;;;5075272;28;20024;-77
2023/03/27 09:43:57;;;;;;;19.13;4.82;;;3.30;99.90;;;;;;5059926;28;20025;-77
2023/03/27 09:46:25;;;;;;;13.10;5.75;;;3.40;99.90;;;;;;5066554;28;20027;-78
2023/03/27 09:49:13;;;;;;;16.40;4.72;;;3.50;99.90;;;;;;5054653;28;20051;-78
2023/03/27 09:51:49;;;;;;;13.52;3.78;;;3.60;99.90;;;;;;5062977;28;20029;-79
2023/03/27 09:54:18;;;;;;;11.35;5.13;;;3.60;99.90;;;;;;5069725;28;20047;-77
2023/03/27 09:56:47;;;;;;;10.23;4.32;;;3.60;99.90;;;;;;5059465;28;20036;-77
2023/03/27 09:59:36;;;;;;;13.82;5.00;;;3.60;99.90;;;;;;5062745;28;20052;-78
2023/03/27 10:02:21;;;;;;;8.95;3.83;;;3.70;99.90;;;;;;5075161;28;20402;-77
2023/03/27 10:05:10;;;;;;;7.68;3.80;;;3.80;99.90;;;;;;5074150;28;20373;-79
2023/03/27 10:07:38;;;;;;;11.65;3.78;;;3.80;99.90;;;;;;5042489;28;20097;-77
2023/03/27 10:10:18;;;;;;;8.95;3.58;;;3.80;99.90;;;;;;5085738;22;20057;-78
2023/03/27 10:12:57;;;;;;;12.60;3.28;;;4.10;99.90;;;;;;5028660;28;20034;-77
2023/03/27 10:15:35;;;;;;;10.82;2.80;;;4.40;99.90;;;;;;5009534;28;20018;-79
2023/03/27 10:18:05;;;;;;;10.18;3.80;;;4.60;99.90;;;;;;5025479;28;20033;-78
2023/03/27 10:20:31;;;;;;;12.85;3.25;;;4.60;99.90;;;;;;5042681;28;20030;-78
2023/03/27 10:23:05;;;;;;;8.43;2.90;;;4.80;99.20;;;;;;5029287;28;20057;-78
2023/03/27 10:25:38;;;;;;;11.15;2.95;;;4.90;99.20;;;;;;5023141;28;20048;-77
2023/03/27 10:28:17;;;;;;;11.98;3.03;;;4.80;99.90;;;;;;5037590;28;20021;-78
2023/03/27 10:30:43;;;;;;;5.60;2.63;;;4.80;97.30;;;;;;5019076;28;20030;-78
2023/03/27 10:33:09;;;;;;;8.30;2.40;;;4.70;98.30;;;;;;5022296;28;20068;-78
2023/03/27 10:35:42;;;;;;;8.35;2.95;;;4.70;96.80;;;;;;5037394;28;20026;-79
2023/03/27 10:38:14;;;;;;;9.05;3.08;;;4.60;97.30;;;;;;5039886;28;20051;-79
2023/03/27 10:40:42;;;;;;;12.60;3.05;;;4.50;99.80;;;;;;5026118;28;20025;-77
2023/03/27 10:43:15;;;;;;;10.32;2.25;;;4.60;97.60;;;;;;5011962;28;20036;-78
2023/03/27 10:45:55;;;;;;;11.77;2.95;;;4.60;98.10;;;;;;5044065;28;20017;-77
2023/03/27 10:48:56;;;;;;;6.75;2.72;;;4.60;95.90;;;;;;5023926;28;20025;-80
2023/03/27 10:51:40;;;;;;;8.13;2.67;;;4.60;97.10;;;;;;5024296;28;20066;-78
2023/03/27 10:54:45;;;;;;;9.23;2.72;;;4.70;95.20;;;;;;5007330;28;20034;-78
2023/03/27 10:57:23;;;;;;;9.20;2.70;;;4.90;95.90;;;;;;5009643;28;20037;-77
2023/03/27 11:00:12;;;;;;;14.20;2.75;;;5.10;95.40;;;;;;5003609;28;20080;-79
2023/03/27 11:02:50;;;;;;;7.68;2.50;;;5.30;94.90;;;;;;5033218;28;20081;-78
2023/03/27 11:05:22;;;;;;;6.78;2.30;;;5.30;95.90;;;;;;5008193;28;20052;-79
2023/03/27 11:08:02;;;;;;;5.50;2.33;;;5.30;95.20;;;;;;5033219;28;20029;-79
2023/03/27 11:10:56;;;;;;;6.07;1.63;;;5.30;91.70;;;;;;5042324;28;20029;-77
2023/03/27 11:13:44;;;;;;;8.02;2.08;;;5.10;91.80;;;;;;5034627;28;20048;-79
2023/03/27 11:16:35;;;;;;;6.35;2.10;;;4.90;92.60;;;;;;5019440;28;20022;-77
2023/03/27 11:19:00;;;;;;;9.05;2.60;;;4.80;92.80;;;;;;5023562;28;20030;-79
2023/03/27 11:21:35;;;;;;;10.85;2.47;;;4.70;93.20;;;;;;5021672;28;20030;-78
2023/03/27 11:24:04;;;;;;;8.60;2.17;;;4.70;93.70;;;;;;5016722;28;20030;-79
2023/03/27 11:27:17;;;;;;;8.77;2.22;;;4.90;92.70;;;;;;5023838;28;20018;-78
2023/03/27 11:30:13;;;;;;;5.05;2.05;;;5.30;91.10;;;;;;5031408;28;20093;-78
2023/03/27 11:32:46;;;;;;;6.22;1.98;;;5.70;90.40;;;;;;5041692;28;20033;-78
2023/03/27 11:35:21;;;;;;;6.88;1.77;;;6.10;90.60;;;;;;5022541;28;20029;-80
2023/03/27 11:37:56;;;;;;;7.93;1.77;;;6.30;91.90;;;;;;5027437;28;20025;-79
2023/03/27 11:40:28;;;;;;;5.10;2.30;;;6.60;85.80;;;;;;5014578;28;20037;-77
2023/03/27 11:42:53;;;;;;;6.88;1.75;;;6.50;84.90;;;;;;5040574;28;20104;-79
2023/03/27 11:45:26;;;;;;;7.20;1.70;;;6.30;83.40;;;;;;5039072;28;20034;-79
2023/03/27 11:48:16;;;;;;;6.93;1.67;;;6.00;84.60;;;;;;5031995;28;20017;-78
2023/03/27 11:51:16;;;;;;;4.43;1.95;;;6.00;83.50;;;;;;5052804;28;20055;-76
2023/03/27 11:54:02;;;;;;;2.65;1.30;;;6.40;83.40;;;;;;5008241;28;20033;-78
2023/03/27 11:56:58;;;;;;;5.88;1.67;;;6.90;85.00;;;;;;5019514;28;20036;-79
2023/03/27 11:59:41;;;;;;;3.08;1.45;;;7.60;76.10;;;;;;5023015;28;20022;-78
2023/03/27 12:02:28;;;;;;;1.77;1.15;;;8.10;78.30;;;;;;5021719;28;20101;-79
2023/03/27 12:05:38;;;;;;;7.18;1.23;;;8.10;65.60;;;;;;5021320;28;20014;-77
2023/03/27 12:08:24;;;;;;;6.45;1.25;;;7.40;65.30;;;;;;5027482;28;20489;-79
2023/03/27 12:10:52;;;;;;;4.82;1.40;;;6.60;70.70;;;;;;5039866;28;20128;-79
2023/03/27 12:13:57;;;;;;;5.28;1.48;;;6.10;75.30;;;;;;5030287;28;20018;-76
2023/03/27 12:16:36;;;;;;;3.35;1.33;;;5.80;79.10;;;;;;5036796;28;20104;-78
2023/03/27 12:19:20;;;;;;;4.78;1.73;;;5.90;80.80;;;;;;5022421;28;20030;-79
2023/03/27 12:22:03;;;;;;;8.10;1.63;;;6.10;79.40;;;;;;5028277;28;20056;-76
2023/03/27 12:24:44;;;;;;;5.07;1.40;;;6.20;79.80;;;;;;4997310;28;20184;-79
2023/03/27 12:27:31;;;;;;;6.15;1.80;;;6.40;79.10;;;;;;5013278;28;20022;-79
2023/03/27 12:30:18;;;;;;;6.38;1.80;;;6.60;75.20;;;;;;5045419;28;20022;-79
2023/03/27 12:33:03;;;;;;;5.18;1.42;;;6.60;74.30;;;;;;5028708;28;20052;-80
2023/03/27 12:35:34;;;;;;;5.22;1.52;;;6.60;74.30;;;;;;5043945;28;20026;-79
2023/03/27 12:38:17;;;;;;;7.23;1.77;;;6.70;74.30;;;;;;5033216;28;20036;-79
2023/03/27 12:41:00;;;;;;;7.53;1.75;;;6.70;73.80;;;;;;5025957;28;20645;-80
2023/03/27 12:43:30;;;;;;;2.28;0.80;;;6.80;74.50;;;;;;5025080;28;20390;-79
2023/03/27 12:46:14;;;;;;;3.75;1.10;;;6.80;71.50;;;;;;5023348;28;20018;-78
2023/03/27 12:49:04;;;;;;;3.17;0.82;;;6.80;70.00;;;;;;5024613;28;20483;-79
2023/03/27 12:51:46;;;;;;;5.65;0.93;;;6.80;68.50;;;;;;5024757;28;20084;-79
2023/03/27 12:54:31;;;;;;;2.38;0.88;;;6.70;66.50;;;;;;5023306;28;20042;-79
2023/03/27 12:56:58;;;;;;;4.03;1.13;;;6.60;66.70;;;;;;5022883;28;20383;-78
2023/03/27 12:59:28;;;;;;;6.32;1.20;;;6.60;66.60;;;;;;5029686;28;20037;-78
2023/03/27 13:02:18;;;;;;;6.43;1.27;;;6.50;67.40;;;;;;5026626;28;20021;-79
2023/03/27 13:05:19;;;;;;;1.88;0.95;;;6.30;68.10;;;;;;5045551;28;20017;-79
2023/03/27 13:08:03;;;;;;;4.00;1.20;;;6.10;69.30;;;;;;5033838;28;20049;-78
2023/03/27 13:11:20;;;;;;;3.65;1.08;;;6.00;70.40;;;;;;5013868;28;20030;-78
2023/03/27 13:14:13;;;;;;;2.30;1.20;;;6.10;72.20;;;;;;4994044;28;20209;-79
2023/03/27 13:16:54;;;;;;;4.85;1.15;;;6.40;70.10;;;;;;5009325;28;20104;-78
2023/03/27 13:19:26;;;;;;;3.42;1.00;;;7.00;70.50;;;;;;5046831;28;20034;-80
2023/03/27 13:22:13;;;;;;;7.40;1.27;;;7.30;68.40;;;;;;5011978;28;20029;-78
2023/03/27 13:24:45;;;;;;;3.15;1.23;;;7.10;66.70;;;;;;5026686;28;20018;-79
2023/03/27 13:27:41;;;;;;;3.67;1.13;;;6.70;67.50;;;;;;5013915;28;20025;-79
2023/03/27 13:30:45;;;;;;;2.95;0.90;;;6.40;68.00;;;;;;4997457;28;20033;-80